Station Historical Data
 
Daily Summary for January 19, 2020 Units:  English    Metric   Both
« Previous Day
Next Day »
Daily Weekly Monthly Yearly Custom
  Current: High: Low: Average:
Temperature: 45.1 °F 46.8 °F 44.5 °F 46 °F
Dew Point: 44.6 °F 46 °F 43.7 °F 45.3 °F
Humidity: 98% 98% 97% 97%
Wind Speed: 0mph 2.3mph 0mph 0.1mph
Wind Gust: 0mph 2mph - -
WindCalm - - NNE
Pressure: 30.02 in 30.06 in 29.96 in -
Precipitation: 0 in      
Historical Graphs
 
 
Tabular Data for January 19, 2020
Time Temperature Dew Point Pressure Wind Wind Speed Wind Gust Humidity Rainfall Rate (Hourly) solar Conditions
00:00 45.7 °F 44.9 °F 30.06 in Calm     97% 0 in WeatherDisplay:10.37 W/m2 -RA
00:05 45.5 °F 44.7 °F 30.06 in Calm     97% 0 in WeatherDisplay:10.37 W/m2 OVC
00:10 45.5 °F 44.7 °F 30.06 in Calm     97% 0 in WeatherDisplay:10.37 W/m2 OVC
00:15 45.6 °F 44.8 °F 30.06 in Calm   1 mph 97% 0 in WeatherDisplay:10.37 W/m2 OVC
00:20 45.5 °F 44.7 °F 30.05 in Calm     97% 0 in WeatherDisplay:10.37 W/m2 OVC
00:25 46 °F 45.2 °F 30.05 in Calm   1 mph 97% 0 in WeatherDisplay:10.37 W/m2 OVC
00:30 46.3 °F 45.5 °F 30.05 in Calm     97% 0 in WeatherDisplay:10.37 W/m2 OVC
00:35 46.2 °F 45.4 °F 30.05 in Calm     97% 0 in WeatherDisplay:10.37 W/m2 OVC
00:40 46 °F 45.2 °F 30.04 in Calm     97% 0 in WeatherDisplay:10.37 W/m2 OVC
00:45 46 °F 45.2 °F 30.04 in Calm     97% 0 in WeatherDisplay:10.37 W/m2 OVC
00:50 46.2 °F 45.4 °F 30.04 in Calm   1 mph 97% 0 in WeatherDisplay:10.37 W/m2 OVC
00:55 46.5 °F 45.7 °F 30.03 in Calm   1 mph 97% 0 in WeatherDisplay:10.37 W/m2 OVC
01:00 46.7 °F 45.9 °F 30.03 in Calm   1 mph 97% 0 in WeatherDisplay:10.37 W/m2 OVC
01:05 46.7 °F 45.9 °F 30.02 in NNE 1.2 mph   97% 0 in WeatherDisplay:10.37 W/m2 OVC
01:10 46.8 °F 46 °F 30.02 in Calm   1 mph 97% 0 in WeatherDisplay:10.37 W/m2 OVC
01:15 46.8 °F 46 °F 30.02 in Calm   1 mph 97% 0 in WeatherDisplay:10.37 W/m2 OVC
01:20 46.8 °F 46 °F 30.02 in Calm     97% 0 in WeatherDisplay:10.37 W/m2 OVC
01:25 46.8 °F 46 °F 30.01 in Calm     97% 0 in WeatherDisplay:10.37 W/m2 OVC
01:30 46.7 °F 45.9 °F 30.01 in Calm     97% 0 in WeatherDisplay:10.37 W/m2 OVC
01:35 46.7 °F 45.9 °F 30.01 in Calm   1 mph 97% 0 in WeatherDisplay:10.37 W/m2 OVC
01:40 46.7 °F 45.9 °F 30.01 in Calm   1 mph 97% 0 in WeatherDisplay:10.37 W/m2 OVC
01:45 46.7 °F 45.9 °F 30.01 in Calm     97% 0 in WeatherDisplay:10.37 W/m2 OVC
01:50 46.7 °F 45.9 °F 30.01 in Calm   1 mph 97% 0 in WeatherDisplay:10.37 W/m2 OVC
01:55 46.6 °F 45.8 °F 30.01 in Calm   1 mph 97% 0 in WeatherDisplay:10.37 W/m2 OVC
02:00 46.6 °F 45.8 °F 30.01 in Calm   2 mph 97% 0 in WeatherDisplay:10.37 W/m2 OVC
02:05 46.5 °F 45.7 °F 30.01 in Calm   1 mph 97% 0 in WeatherDisplay:10.37 W/m2 OVC
02:10 46.5 °F 45.7 °F 30.01 in NNE 2.3 mph   97% 0 in WeatherDisplay:10.37 W/m2 OVC
02:15 46.5 °F 45.7 °F 30.01 in Calm     97% 0 in WeatherDisplay:10.37 W/m2 OVC
02:20 46.5 °F 45.7 °F 30.01 in Calm   1 mph 97% 0 in WeatherDisplay:10.37 W/m2 OVC
02:25 46.5 °F 45.7 °F 30.01 in Calm   2 mph 97% 0 in WeatherDisplay:10.37 W/m2 OVC
02:30 46.4 °F 45.6 °F 30.00 in Calm     97% 0 in WeatherDisplay:10.37 W/m2 OVC
02:35 46.4 °F 45.6 °F 30.00 in Calm   1 mph 97% 0 in WeatherDisplay:10.37 W/m2 OVC
02:40 46.4 °F 45.6 °F 30.00 in Calm   2 mph 97% 0 in WeatherDisplay:10.37 W/m2 OVC
02:45 46.4 °F 45.6 °F 30.00 in Calm     97% 0 in WeatherDisplay:10.37 W/m2 OVC
02:50 46.4 °F 45.6 °F 30.00 in Calm   1 mph 97% 0 in WeatherDisplay:10.37 W/m2 OVC
02:55 46.4 °F 45.6 °F 30.00 in Calm   1 mph 97% 0 in WeatherDisplay:10.37 W/m2 OVC
03:00 46.4 °F 45.6 °F 30.00 in Calm     97% 0 in WeatherDisplay:10.37 W/m2 OVC
03:05 46.5 °F 45.7 °F 30.00 in Calm   1 mph 97% 0 in WeatherDisplay:10.37 W/m2 OVC
03:10 46.5 °F 45.7 °F 30.00 in Calm   1 mph 97% 0 in WeatherDisplay:10.37 W/m2 OVC
03:15 46.5 °F 45.7 °F 30.00 in Calm   1 mph 97% 0 in WeatherDisplay:10.37 W/m2 OVC
03:20 46.5 °F 45.7 °F 30.00 in Calm   1 mph 97% 0 in WeatherDisplay:10.37 W/m2 OVC
03:25 46.6 °F 45.8 °F 29.99 in Calm     97% 0 in WeatherDisplay:10.37 W/m2 OVC
03:30 46.6 °F 45.8 °F 29.99 in Calm   1 mph 97% 0 in WeatherDisplay:10.37 W/m2 OVC
03:35 46.6 °F 45.8 °F 29.99 in Calm     97% 0 in WeatherDisplay:10.37 W/m2 OVC
03:40 46.6 °F 45.8 °F 29.99 in Calm     97% 0 in WeatherDisplay:10.37 W/m2 OVC
03:45 46.6 °F 45.8 °F 29.99 in Calm     97% 0 in WeatherDisplay:10.37 W/m2 OVC
03:50 46.6 °F 45.8 °F 29.99 in Calm     97% 0 in WeatherDisplay:10.37 W/m2 OVC
03:55 46.6 °F 45.8 °F 29.98 in Calm     97% 0 in WeatherDisplay:10.37 W/m2 OVC
04:00 46.6 °F 45.8 °F 29.98 in Calm     97% 0 in WeatherDisplay:10.37 W/m2 OVC
04:05 46.6 °F 45.8 °F 29.99 in Calm   1 mph 97% 0 in WeatherDisplay:10.37 W/m2 OVC
04:10 46.7 °F 45.9 °F 29.98 in Calm     97% 0 in WeatherDisplay:10.37 W/m2 OVC
04:15 46.7 °F 45.9 °F 29.98 in Calm   1 mph 97% 0 in WeatherDisplay:10.37 W/m2 OVC
04:20 46.8 °F 46 °F 29.98 in Calm   1 mph 97% 0 in WeatherDisplay:10.37 W/m2 OVC
04:25 46.8 °F 46 °F 29.98 in Calm   1 mph 97% 0 in WeatherDisplay:10.37 W/m2 OVC
04:30 46.8 °F 46 °F 29.98 in Calm   1 mph 97% 0 in WeatherDisplay:10.37 W/m2 OVC
04:35 46.7 °F 45.9 °F 29.98 in Calm     97% 0 in WeatherDisplay:10.37 W/m2 OVC
04:40 46.7 °F 45.9 °F 29.98 in Calm     97% 0 in WeatherDisplay:10.37 W/m2 OVC
04:45 46.6 °F 45.8 °F 29.97 in Calm     97% 0 in WeatherDisplay:10.37 W/m2 OVC
04:50 46.6 °F 45.8 °F 29.97 in Calm   1 mph 97% 0 in WeatherDisplay:10.37 W/m2 OVC
04:55 46.6 °F 45.8 °F 29.97 in Calm     97% 0 in WeatherDisplay:10.37 W/m2 OVC
05:00 46.6 °F 45.8 °F 29.97 in Calm     97% 0 in WeatherDisplay:10.37 W/m2 OVC
05:05 46.6 °F 45.8 °F 29.97 in Calm     97% 0 in WeatherDisplay:10.37 W/m2 BKN
05:10 46.6 °F 45.8 °F 29.97 in Calm   1 mph 97% 0 in WeatherDisplay:10.37 W/m2 BKN
05:15 46.6 °F 45.8 °F 29.96 in Calm   1 mph 97% 0 in WeatherDisplay:10.37 W/m2 SCT
05:20 46.5 °F 45.7 °F 29.97 in Calm   1 mph 97% 0 in WeatherDisplay:10.37 W/m2 SCT
05:25 46.4 °F 45.6 °F 29.97 in Calm     97% 0 in WeatherDisplay:10.37 W/m2 SCT
05:30 46.4 °F 45.6 °F 29.97 in Calm   1 mph 97% 0 in WeatherDisplay:10.37 W/m2 SCT
05:35 46.3 °F 45.5 °F 29.97 in Calm     97% 0 in WeatherDisplay:10.37 W/m2 SCT
05:40 46.3 °F 45.5 °F 29.96 in Calm   2 mph 97% 0 in WeatherDisplay:10.37 W/m2 SCT
05:45 46.3 °F 45.5 °F 29.97 in Calm     97% 0 in WeatherDisplay:10.37 W/m2 SCT
05:50 46.3 °F 45.5 °F 29.97 in Calm   1 mph 97% 0 in WeatherDisplay:10.37 W/m2 SCT
05:55 46.3 °F 45.5 °F 29.97 in Calm     97% 0 in WeatherDisplay:10.37 W/m2 SCT
06:00 46.4 °F 45.6 °F 29.97 in Calm   1 mph 97% 0 in WeatherDisplay:10.37 W/m2 SCT
06:05 46.4 °F 45.6 °F 29.97 in Calm   1 mph 97% 0 in WeatherDisplay:10.37 W/m2 FEW
06:10 46.3 °F 45.5 °F 29.97 in Calm     97% 0 in WeatherDisplay:10.37 W/m2 FEW
06:15 46.1 °F 45.3 °F 29.98 in Calm   1 mph 97% 0 in WeatherDisplay:10.37 W/m2 FEW
06:20 46 °F 45.2 °F 29.97 in Calm   1 mph 97% 0 in WeatherDisplay:10.37 W/m2 FEW
06:25 45.8 °F 45 °F 29.98 in Calm   1 mph 97% 0 in WeatherDisplay:10.37 W/m2 FEW
06:30 45.8 °F 45 °F 29.98 in NNE 1.2 mph   97% 0 in WeatherDisplay:10.37 W/m2 FEW
06:35 45.7 °F 44.9 °F 29.98 in Calm     97% 0 in WeatherDisplay:10.37 W/m2 FEW
06:40 45.7 °F 44.9 °F 29.98 in Calm     97% 0 in WeatherDisplay:10.37 W/m2 FEW
06:45 45.7 °F 44.9 °F 29.98 in Calm     97% 0 in WeatherDisplay:10.37 W/m2 FEW
06:50 45.7 °F 44.9 °F 29.98 in Calm     97% 0 in WeatherDisplay:10.37 W/m2 FEW
06:55 45.6 °F 44.8 °F 29.98 in Calm   1 mph 97% 0 in WeatherDisplay:10.37 W/m2 FEW
07:00 45.6 °F 44.8 °F 29.98 in Calm   1 mph 97% 0 in WeatherDisplay:10.37 W/m2 FEW
07:05 45.6 °F 44.8 °F 29.98 in Calm   2 mph 97% 0 in WeatherDisplay:10.37 W/m2 CLR
07:10 45.6 °F 44.8 °F 29.98 in NNE 1 mph 2 mph 97% 0 in WeatherDisplay:10.37 W/m2 CLR
07:15 45.6 °F 44.8 °F 29.98 in Calm   1 mph 97% 0 in WeatherDisplay:10.37 W/m2 CLR
07:20 45.5 °F 44.7 °F 29.98 in NNE 1 mph 2 mph 97% 0 in WeatherDisplay:10.37 W/m2 CLR
07:25 45.5 °F 44.7 °F 29.98 in Calm   1 mph 97% 0 in WeatherDisplay:10.37 W/m2 SCT
07:30 45.4 °F 44.6 °F 29.98 in Calm   1 mph 97% 0 in WeatherDisplay:10.37 W/m2 SCT
07:35 45.3 °F 44.5 °F 29.98 in Calm   1 mph 97% 0 in WeatherDisplay:10.37 W/m2 SCT
07:40 45 °F 44.2 °F 29.99 in Calm     97% 0 in WeatherDisplay:10.37 W/m2 SCT
07:45 44.7 °F 43.9 °F 29.99 in Calm     97% 0 in WeatherDisplay:10.37 W/m2 BKN
07:50 44.7 °F 43.9 °F 29.99 in Calm   1 mph 97% 0 in WeatherDisplay:10.37 W/m2 BKN
07:55 44.6 °F 43.8 °F 29.99 in Calm     97% 0 in WeatherDisplay:10.37 W/m2 BKN
08:00 44.7 °F 43.9 °F 30.00 in Calm     97% 0 in WeatherDisplay:10.37 W/m2 BKN
08:05 44.6 °F 43.8 °F 30.00 in Calm     97% 0 in WeatherDisplay:10.37 W/m2 SCT
08:10 44.6 °F 43.8 °F 30.00 in Calm   1 mph 97% 0 in WeatherDisplay:10.37 W/m2 SCT
08:15 44.7 °F 43.9 °F 30.00 in Calm   1 mph 97% 0 in WeatherDisplay:10.37 W/m2 SCT
08:20 44.6 °F 43.8 °F 30.01 in Calm     97% 0 in WeatherDisplay:10.37 W/m2 SCT
08:25 44.5 °F 43.7 °F 30.00 in Calm     97% 0 in WeatherDisplay:10.37 W/m2 SCT
08:30 44.5 °F 43.7 °F 30.01 in Calm     97% 0 in WeatherDisplay:10.37 W/m2 SCT
08:35 44.5 °F 43.7 °F 30.01 in Calm     97% 0 in WeatherDisplay:10.37 W/m2 SCT
08:40 44.6 °F 43.8 °F 30.01 in Calm     97% 0 in WeatherDisplay:10.37 W/m2 SCT
08:45 44.7 °F 43.9 °F 30.01 in Calm     97% 0 in WeatherDisplay:10.37 W/m2 SCT
08:50 44.8 °F 44 °F 30.01 in Calm     97% 0 in WeatherDisplay:10.37 W/m2 SCT
08:55 44.9 °F 44.1 °F 30.02 in Calm     97% 0 in WeatherDisplay:10.37 W/m2 SCT
09:00 44.9 °F 44.4 °F 30.02 in Calm     98% 0 in WeatherDisplay:10.37 W/m2 SCT
09:05 45.1 °F 44.6 °F 30.02 in Calm     98% 0 in WeatherDisplay:10.37 W/m2 CLR
Silver Leaf
Compliments of Weather Underground - 4 mb